Time;durP1;ratioP1;P1;durP2;ratioP2;P2;SDS_P1;SDS_P2;PMS_P1;PMS_P2;Temp;Humidity;BMP_temperature;BMP_pressure;BME280_temperature;BME280_humidity;BME280_pressure;Samples;Min_cycle;Max_cycle;Signal;HPM_P1;HPM_P2
2022/09/27 00:01:28;;;;;;;1.53;1.43;;;14.00;99.90;;;;;;5046988;28;20213;-71
2022/09/27 00:03:55;;;;;;;1.80;1.50;;;14.00;99.90;;;;;;5037981;28;20200;-71
2022/09/27 00:06:25;;;;;;;1.60;1.50;;;14.00;99.90;;;;;;5026879;28;20205;-71
2022/09/27 00:08:52;;;;;;;1.50;1.40;;;14.00;99.90;;;;;;5027817;28;20302;-71
2022/09/27 00:11:25;;;;;;;1.90;1.27;;;14.00;99.90;;;;;;5030349;28;20224;-73
2022/09/27 00:13:52;;;;;;;1.70;1.50;;;14.00;99.90;;;;;;5030385;28;20651;-73
2022/09/27 00:16:18;;;;;;;2.40;1.13;;;14.00;99.90;;;;;;5043316;28;20295;-72
2022/09/27 00:18:47;;;;;;;1.20;1.10;;;14.00;99.90;;;;;;5050586;28;20234;-73
2022/09/27 00:21:14;;;;;;;1.60;1.50;;;14.00;99.90;;;;;;5050434;28;20203;-72
2022/09/27 00:23:41;;;;;;;1.50;1.40;;;13.90;99.90;;;;;;5050250;28;20244;-74
2022/09/27 00:26:10;;;;;;;1.37;1.27;;;13.90;99.90;;;;;;5049317;28;20886;-74
2022/09/27 00:28:38;;;;;;;1.40;1.10;;;13.90;99.90;;;;;;5032790;28;20205;-74
2022/09/27 00:31:11;;;;;;;1.57;1.47;;;13.90;99.90;;;;;;5042495;28;20695;-73
2022/09/27 00:33:37;;;;;;;1.33;1.23;;;13.90;99.90;;;;;;5049579;28;20195;-73
2022/09/27 00:36:06;;;;;;;1.60;1.57;;;13.90;99.90;;;;;;5049770;28;20666;-74
2022/09/27 00:38:33;;;;;;;1.97;1.40;;;13.90;99.90;;;;;;5049680;28;20643;-74
2022/09/27 00:41:00;;;;;;;1.40;1.30;;;13.90;99.90;;;;;;5049230;28;20204;-72
2022/09/27 00:43:42;;;;;;;1.83;1.60;;;13.90;99.90;;;;;;5049956;28;20214;-72
2022/09/27 00:46:09;;;;;;;1.20;1.10;;;13.90;99.90;;;;;;5049697;28;20208;-71
2022/09/27 00:48:37;;;;;;;1.43;1.33;;;13.90;99.90;;;;;;5049446;28;20212;-71
2022/09/27 00:51:08;;;;;;;3.03;1.60;;;13.90;99.90;;;;;;5049656;28;20204;-72
2022/09/27 00:53:41;;;;;;;1.57;1.37;;;13.90;99.90;;;;;;5048866;28;20262;-72
2022/09/27 00:56:11;;;;;;;1.50;1.40;;;13.80;99.90;;;;;;5069169;28;21062;-72
2022/09/27 00:58:44;;;;;;;3.70;1.80;;;13.90;99.90;;;;;;5069465;28;20425;-72
2022/09/27 01:01:12;;;;;;;1.40;1.30;;;13.80;99.90;;;;;;5053300;28;20287;-72
2022/09/27 01:03:45;;;;;;;2.13;1.33;;;13.80;99.90;;;;;;5044706;28;20649;-72
2022/09/27 01:06:15;;;;;;;1.23;1.23;;;13.80;99.90;;;;;;5040141;28;20647;-73
2022/09/27 01:08:42;;;;;;;1.30;1.20;;;13.80;99.90;;;;;;5049327;28;20235;-73
2022/09/27 01:11:23;;;;;;;1.10;1.10;;;13.80;99.90;;;;;;5049293;28;20212;-73
2022/09/27 01:14:08;;;;;;;1.63;1.23;;;13.80;99.90;;;;;;5048936;28;20202;-72
2022/09/27 01:16:43;;;;;;;2.83;1.37;;;13.80;99.90;;;;;;5048694;28;20270;-73
2022/09/27 01:19:21;;;;;;;1.73;1.40;;;13.80;99.90;;;;;;5032699;28;20212;-72
2022/09/27 01:21:56;;;;;;;2.30;1.30;;;13.80;99.90;;;;;;5048045;28;20560;-72
2022/09/27 01:25:01;;;;;;;4.00;1.27;;;13.80;99.90;;;;;;5053052;28;20876;-72
2022/09/27 01:28:05;;;;;;;2.03;1.10;;;13.80;99.90;;;;;;5044825;28;20673;-72
2022/09/27 01:30:45;;;;;;;2.93;1.07;;;13.80;99.90;;;;;;5048704;28;20202;-72
2022/09/27 01:33:25;;;;;;;1.50;1.40;;;13.80;99.90;;;;;;5048910;28;20674;-72
2022/09/27 01:36:05;;;;;;;2.70;1.27;;;13.80;99.90;;;;;;5048108;28;20199;-72
2022/09/27 01:38:42;;;;;;;1.57;1.17;;;13.80;99.90;;;;;;5041390;28;20293;-73
2022/09/27 01:41:17;;;;;;;1.07;0.97;;;13.80;99.90;;;;;;5042535;28;20482;-73
2022/09/27 01:43:49;;;;;;;1.23;1.10;;;13.80;99.90;;;;;;5048658;28;20192;-73
2022/09/27 01:46:23;;;;;;;1.30;1.10;;;13.70;99.90;;;;;;5048746;28;20204;-74
2022/09/27 01:48:51;;;;;;;1.10;1.07;;;13.80;99.90;;;;;;5047675;28;20202;-73
2022/09/27 01:51:21;;;;;;;1.00;1.00;;;13.80;99.90;;;;;;5048550;28;20307;-73
2022/09/27 01:53:51;;;;;;;0.90;0.90;;;13.80;99.90;;;;;;5048812;28;20200;-73
2022/09/27 01:56:23;;;;;;;1.20;1.10;;;13.80;99.90;;;;;;5049212;28;20211;-73
2022/09/27 01:58:58;;;;;;;1.10;1.00;;;13.80;99.90;;;;;;5048224;28;20216;-74
2022/09/27 02:01:29;;;;;;;1.20;1.10;;;13.80;99.90;;;;;;5028700;28;20307;-73
2022/09/27 02:03:59;;;;;;;1.20;1.10;;;13.80;99.90;;;;;;5028347;28;20295;-73
2022/09/27 02:06:30;;;;;;;1.30;1.20;;;13.80;99.90;;;;;;5028439;28;20300;-73
2022/09/27 02:09:02;;;;;;;1.17;0.73;;;13.80;99.90;;;;;;5028239;28;20221;-73
2022/09/27 02:11:28;;;;;;;1.23;1.13;;;13.80;99.90;;;;;;5034159;28;20188;-73
2022/09/27 02:14:00;;;;;;;1.13;1.00;;;13.80;99.90;;;;;;5048225;28;20215;-73
2022/09/27 02:16:37;;;;;;;1.00;1.00;;;13.70;99.90;;;;;;5048490;28;20192;-74
2022/09/27 02:19:10;;;;;;;1.20;0.97;;;13.80;99.90;;;;;;5049381;28;20243;-71
2022/09/27 02:21:42;;;;;;;2.33;1.27;;;13.80;99.90;;;;;;5047915;28;20196;-72
2022/09/27 02:24:12;;;;;;;0.83;0.77;;;13.70;99.90;;;;;;5050493;28;20261;-72
2022/09/27 02:26:43;;;;;;;1.77;0.97;;;13.80;99.90;;;;;;5055256;28;20201;-72
2022/09/27 02:29:13;;;;;;;0.93;0.93;;;13.70;99.90;;;;;;5026201;28;20201;-72
2022/09/27 02:31:42;;;;;;;1.30;1.20;;;13.80;99.90;;;;;;5040305;28;20212;-72
2022/09/27 02:34:13;;;;;;;2.57;1.00;;;13.70;99.90;;;;;;5025589;28;20208;-72
2022/09/27 02:36:41;;;;;;;0.97;0.97;;;13.70;99.90;;;;;;5025611;28;20584;-72
2022/09/27 02:39:08;;;;;;;1.43;1.10;;;13.80;99.90;;;;;;5042593;28;20243;-72
2022/09/27 02:41:35;;;;;;;0.90;0.90;;;13.80;99.90;;;;;;5045480;28;20773;-71
2022/09/27 02:44:06;;;;;;;1.23;0.93;;;13.80;99.90;;;;;;5045746;28;20208;-71
2022/09/27 02:46:48;;;;;;;1.70;1.60;;;13.80;99.90;;;;;;5045375;28;20647;-70
2022/09/27 02:49:30;;;;;;;1.10;1.10;;;13.80;99.90;;;;;;5030950;28;20662;-72
2022/09/27 02:52:09;;;;;;;0.80;0.80;;;13.80;99.90;;;;;;5025352;28;20224;-72
2022/09/27 02:54:44;;;;;;;1.30;1.20;;;13.80;99.90;;;;;;5033457;28;20573;-71
2022/09/27 02:57:25;;;;;;;1.17;1.03;;;13.80;99.90;;;;;;5041198;28;20200;-71
2022/09/27 03:00:00;;;;;;;1.10;1.00;;;13.80;99.90;;;;;;5047351;28;20219;-71
2022/09/27 03:02:34;;;;;;;1.10;1.00;;;13.80;99.90;;;;;;5047599;28;20286;-71
2022/09/27 03:05:05;;;;;;;1.37;0.90;;;13.80;99.90;;;;;;5047109;28;20209;-71
2022/09/27 03:07:32;;;;;;;2.23;1.10;;;13.80;99.90;;;;;;5047770;28;20219;-71
2022/09/27 03:09:59;;;;;;;1.27;1.20;;;13.80;99.90;;;;;;5046973;28;20228;-71
2022/09/27 03:12:26;;;;;;;0.80;0.80;;;13.80;99.90;;;;;;5046983;28;20208;-71
2022/09/27 03:14:54;;;;;;;0.83;0.83;;;13.80;99.90;;;;;;5048014;28;20657;-71
2022/09/27 03:17:21;;;;;;;2.77;1.17;;;13.80;99.90;;;;;;5047335;28;20589;-71
2022/09/27 03:19:49;;;;;;;1.07;0.93;;;13.80;99.90;;;;;;5047209;28;20289;-71
2022/09/27 03:22:16;;;;;;;1.43;1.03;;;13.80;99.90;;;;;;5047607;28;20200;-71
2022/09/27 03:24:44;;;;;;;1.50;1.40;;;13.80;99.90;;;;;;5054571;28;20247;-71
2022/09/27 03:27:12;;;;;;;1.23;1.13;;;13.80;99.90;;;;;;5055406;28;20223;-71
2022/09/27 03:29:39;;;;;;;2.43;1.23;;;13.80;99.90;;;;;;5047233;28;20226;-71
2022/09/27 03:32:06;;;;;;;1.13;1.10;;;13.80;99.90;;;;;;5047258;28;20293;-71
2022/09/27 03:34:33;;;;;;;1.80;1.20;;;13.80;99.90;;;;;;5046782;28;20215;-71
2022/09/27 03:37:01;;;;;;;2.00;1.20;;;13.70;99.90;;;;;;5047180;28;20334;-71
2022/09/27 03:39:28;;;;;;;1.17;1.07;;;13.70;99.90;;;;;;5046894;28;20246;-71
2022/09/27 03:41:54;;;;;;;2.83;1.27;;;13.70;99.90;;;;;;5046716;28;20204;-71
2022/09/27 03:44:21;;;;;;;1.40;1.30;;;13.70;99.90;;;;;;5048487;28;20307;-71
2022/09/27 03:46:48;;;;;;;1.20;1.20;;;13.60;99.90;;;;;;5051090;28;20204;-71
2022/09/27 03:49:15;;;;;;;1.07;1.07;;;13.70;99.90;;;;;;5041155;28;20208;-71
2022/09/27 03:51:42;;;;;;;1.27;1.23;;;13.70;99.90;;;;;;5030588;28;20208;-71
2022/09/27 03:54:10;;;;;;;1.50;1.40;;;13.60;99.90;;;;;;5037449;28;20268;-71
2022/09/27 03:56:37;;;;;;;2.00;1.50;;;13.60;99.90;;;;;;5070445;28;20226;-71
2022/09/27 03:59:04;;;;;;;2.63;1.53;;;13.60;99.90;;;;;;5070902;28;20246;-71
2022/09/27 04:01:31;;;;;;;1.00;1.00;;;13.60;99.90;;;;;;5070698;28;20629;-71
2022/09/27 04:03:58;;;;;;;1.40;1.30;;;13.50;99.90;;;;;;5070600;28;20615;-71
2022/09/27 04:06:25;;;;;;;1.40;1.30;;;13.50;99.90;;;;;;5070614;28;20207;-71
2022/09/27 04:08:53;;;;;;;1.20;1.20;;;13.40;99.90;;;;;;5070550;28;20634;-71
2022/09/27 04:11:21;;;;;;;2.43;1.53;;;13.50;99.90;;;;;;5065492;28;20876;-71
2022/09/27 04:13:48;;;;;;;3.63;1.40;;;13.50;99.90;;;;;;5050362;28;20205;-71
2022/09/27 04:16:15;;;;;;;1.60;1.50;;;13.50;99.90;;;;;;5050985;28;20208;-71
2022/09/27 04:18:42;;;;;;;1.43;1.33;;;13.40;99.90;;;;;;5050209;28;20228;-71
2022/09/27 04:21:09;;;;;;;1.30;1.20;;;13.40;99.90;;;;;;5030591;28;20208;-71
2022/09/27 04:23:36;;;;;;;1.43;1.00;;;13.40;99.90;;;;;;5030404;28;20254;-71
2022/09/27 04:26:03;;;;;;;3.80;1.50;;;13.40;99.90;;;;;;5067774;28;20696;-71
2022/09/27 04:28:31;;;;;;;2.10;1.40;;;13.40;99.90;;;;;;5070326;28;20210;-71
2022/09/27 04:30:58;;;;;;;1.40;1.30;;;13.40;99.90;;;;;;5062078;28;20247;-71
2022/09/27 04:33:25;;;;;;;1.43;1.40;;;13.40;99.90;;;;;;5049981;28;20204;-71
2022/09/27 04:38:36;;;;;;;1.70;1.60;;;13.30;99.90;;;;;;5049688;28;20222;-71
2022/09/27 04:41:03;;;;;;;2.60;1.30;;;13.30;99.90;;;;;;5049677;28;20216;-71
2022/09/27 04:43:31;;;;;;;1.67;1.50;;;13.30;99.90;;;;;;5050156;28;20204;-71
2022/09/27 04:45:58;;;;;;;3.77;1.50;;;13.30;99.90;;;;;;5050032;28;20200;-71
2022/09/27 04:48:25;;;;;;;1.43;1.40;;;13.20;99.90;;;;;;5047211;28;20213;-71
2022/09/27 04:50:57;;;;;;;1.90;1.40;;;13.20;99.90;;;;;;5029825;28;20217;-71
2022/09/27 04:53:24;;;;;;;1.50;1.40;;;13.20;99.90;;;;;;5029928;28;21057;-71
2022/09/27 04:55:53;;;;;;;1.60;1.50;;;13.20;99.90;;;;;;5063709;28;20306;-71
2022/09/27 04:58:19;;;;;;;1.27;1.27;;;13.20;99.90;;;;;;5042548;28;20200;-71
2022/09/27 05:00:49;;;;;;;2.33;1.80;;;13.20;99.90;;;;;;5029456;28;20209;-71
2022/09/27 05:03:15;;;;;;;1.60;1.47;;;13.10;99.90;;;;;;5029368;28;20298;-71
2022/09/27 05:05:42;;;;;;;1.70;1.60;;;13.10;99.90;;;;;;5029379;28;20201;-71
2022/09/27 05:08:09;;;;;;;1.77;1.70;;;13.10;99.90;;;;;;5040879;28;20250;-71
2022/09/27 05:10:36;;;;;;;1.17;1.17;;;13.10;99.90;;;;;;5049126;28;20234;-71
2022/09/27 05:13:03;;;;;;;1.70;1.60;;;13.10;99.90;;;;;;5049272;28;20575;-71
2022/09/27 05:15:30;;;;;;;2.00;1.70;;;13.10;99.90;;;;;;5049331;28;20218;-71
2022/09/27 05:17:58;;;;;;;1.70;1.60;;;13.00;99.90;;;;;;5049183;28;20208;-71
2022/09/27 05:20:25;;;;;;;1.40;1.40;;;13.00;99.90;;;;;;5048909;28;20606;-71
2022/09/27 05:22:52;;;;;;;1.70;1.60;;;13.00;99.90;;;;;;5048610;28;20583;-71
2022/09/27 05:25:19;;;;;;;1.67;1.57;;;13.00;99.90;;;;;;5061798;28;20210;-71
2022/09/27 05:27:47;;;;;;;2.13;1.90;;;12.90;99.90;;;;;;5056342;28;20212;-71
2022/09/27 05:30:13;;;;;;;1.57;1.47;;;13.00;99.90;;;;;;5048888;28;20215;-71
2022/09/27 05:32:44;;;;;;;2.17;1.87;;;12.90;99.90;;;;;;5048924;28;20204;-71
2022/09/27 05:35:12;;;;;;;1.73;1.63;;;12.90;99.90;;;;;;5048958;28;20223;-71
2022/09/27 05:37:39;;;;;;;2.70;1.97;;;12.90;99.90;;;;;;5048812;28;20570;-71
2022/09/27 05:40:07;;;;;;;1.70;1.60;;;12.90;99.90;;;;;;5048653;28;20227;-71
2022/09/27 05:42:34;;;;;;;1.83;1.73;;;12.90;99.90;;;;;;5048592;28;20204;-71
2022/09/27 05:45:01;;;;;;;1.63;1.50;;;12.90;99.90;;;;;;5048702;28;20632;-71
2022/09/27 05:47:28;;;;;;;2.20;1.70;;;12.80;99.90;;;;;;5048888;28;20208;-71
2022/09/27 05:49:55;;;;;;;1.87;1.77;;;12.80;99.90;;;;;;5033205;28;20212;-71
2022/09/27 05:52:23;;;;;;;2.03;1.83;;;12.80;99.90;;;;;;5028739;28;20209;-71
2022/09/27 05:54:50;;;;;;;2.40;1.83;;;12.80;99.90;;;;;;5046117;28;20276;-71
2022/09/27 05:57:17;;;;;;;2.00;1.90;;;12.80;99.90;;;;;;5068457;28;20302;-71
2022/09/27 05:59:44;;;;;;;2.20;1.77;;;12.80;99.90;;;;;;5068266;28;20231;-71
2022/09/27 06:02:11;;;;;;;2.30;1.87;;;12.80;99.90;;;;;;5068042;28;20322;-71
2022/09/27 06:04:38;;;;;;;2.60;1.70;;;12.80;99.90;;;;;;5057152;28;20514;-71
2022/09/27 06:07:05;;;;;;;1.83;1.63;;;12.80;99.90;;;;;;5047651;28;20579;-71
2022/09/27 06:09:33;;;;;;;1.60;1.50;;;12.70;99.90;;;;;;5048280;28;20305;-71
2022/09/27 06:12:00;;;;;;;1.93;1.83;;;12.70;99.90;;;;;;5047814;28;20236;-71
2022/09/27 06:14:28;;;;;;;1.50;1.40;;;12.70;99.90;;;;;;5048613;28;20214;-71
2022/09/27 06:16:55;;;;;;;1.83;1.70;;;12.80;99.90;;;;;;5047953;28;20308;-71
2022/09/27 06:19:22;;;;;;;1.77;1.67;;;12.80;99.90;;;;;;5048350;28;20235;-71
2022/09/27 06:21:49;;;;;;;2.37;1.77;;;12.80;99.90;;;;;;5047717;28;20300;-71
2022/09/27 06:24:16;;;;;;;1.70;1.60;;;12.80;99.90;;;;;;5047891;28;20244;-71
2022/09/27 06:26:45;;;;;;;3.03;1.80;;;12.80;99.90;;;;;;5047546;28;20214;-71
2022/09/27 06:29:11;;;;;;;1.70;1.60;;;12.80;99.90;;;;;;5047947;28;20234;-71
2022/09/27 06:31:38;;;;;;;1.90;1.80;;;12.80;99.90;;;;;;5047555;28;20219;-71
2022/09/27 06:34:07;;;;;;;1.73;1.67;;;12.80;99.90;;;;;;5047866;28;20299;-71
2022/09/27 06:36:34;;;;;;;1.60;1.50;;;12.80;99.90;;;;;;5047636;28;20203;-71
2022/09/27 06:39:01;;;;;;;1.60;1.53;;;12.90;99.90;;;;;;5047929;28;20223;-71
2022/09/27 06:41:28;;;;;;;1.93;1.60;;;12.80;99.90;;;;;;5047172;28;21017;-71
2022/09/27 06:43:56;;;;;;;1.77;1.67;;;12.80;99.90;;;;;;5047709;28;20302;-71
2022/09/27 06:46:23;;;;;;;2.90;1.43;;;12.90;99.90;;;;;;5047377;28;20675;-71
2022/09/27 06:48:50;;;;;;;2.90;1.60;;;12.80;99.90;;;;;;5040824;28;20211;-71
2022/09/27 06:51:16;;;;;;;1.57;1.47;;;12.80;99.90;;;;;;5027740;28;20235;-71
2022/09/27 06:53:43;;;;;;;3.77;1.80;;;12.80;99.90;;;;;;5027537;28;20239;-71
2022/09/27 06:56:10;;;;;;;1.60;1.50;;;12.80;99.90;;;;;;5067001;28;20221;-70
2022/09/27 07:01:26;;;;;;;1.90;1.80;;;12.80;99.90;;;;;;5052355;28;20219;-71
2022/09/27 07:03:53;;;;;;;1.73;1.63;;;12.80;99.90;;;;;;5047068;28;20211;-71
2022/09/27 07:06:22;;;;;;;1.80;1.70;;;12.80;99.90;;;;;;5047462;28;20954;-71
2022/09/27 07:08:51;;;;;;;1.70;1.60;;;12.80;99.90;;;;;;5047198;28;20230;-71
2022/09/27 07:11:19;;;;;;;1.40;1.40;;;12.80;99.90;;;;;;5046701;28;20254;-71
2022/09/27 07:13:46;;;;;;;2.13;1.57;;;12.80;99.90;;;;;;5047273;28;20216;-71
2022/09/27 07:16:13;;;;;;;2.23;1.60;;;12.80;99.90;;;;;;5047197;28;20206;-71
2022/09/27 07:18:42;;;;;;;1.43;1.43;;;12.80;99.90;;;;;;5047126;28;20208;-71
2022/09/27 07:21:11;;;;;;;1.60;1.50;;;12.80;99.90;;;;;;5051024;28;20312;-71
2022/09/27 07:23:38;;;;;;;2.50;1.70;;;12.80;99.90;;;;;;5050932;28;20697;-71
2022/09/27 07:26:06;;;;;;;1.77;1.67;;;12.80;99.90;;;;;;5069838;28;20203;-71
2022/09/27 07:28:33;;;;;;;3.40;1.70;;;12.80;99.90;;;;;;5071208;28;20203;-71
2022/09/27 07:31:02;;;;;;;2.10;1.60;;;12.80;99.90;;;;;;5071171;28;20288;-71
2022/09/27 07:33:29;;;;;;;1.60;1.50;;;12.80;99.90;;;;;;5071236;28;20203;-71
2022/09/27 07:35:57;;;;;;;1.30;1.20;;;12.80;99.90;;;;;;5071047;28;20215;-71
2022/09/27 07:38:24;;;;;;;1.97;1.07;;;12.80;99.90;;;;;;5071126;28;20218;-71
2022/09/27 07:40:51;;;;;;;1.40;1.30;;;12.90;99.90;;;;;;5070423;28;20246;-71
2022/09/27 07:43:18;;;;;;;1.40;1.30;;;12.90;99.90;;;;;;5071044;28;20218;-71
2022/09/27 07:45:45;;;;;;;1.30;1.30;;;12.90;99.90;;;;;;5070788;28;20290;-71
2022/09/27 07:48:14;;;;;;;1.00;1.00;;;12.90;99.90;;;;;;5069409;28;20705;-71
2022/09/27 07:50:41;;;;;;;1.50;1.17;;;12.90;99.90;;;;;;5050750;28;20231;-71
2022/09/27 07:53:11;;;;;;;1.27;1.23;;;12.90;99.90;;;;;;5050318;28;20709;-71
2022/09/27 07:55:38;;;;;;;1.27;1.27;;;12.90;99.90;;;;;;5065414;28;20211;-71
2022/09/27 07:58:07;;;;;;;1.47;1.40;;;12.90;99.90;;;;;;5051727;28;20214;-71
2022/09/27 08:00:35;;;;;;;1.43;1.33;;;12.90;99.90;;;;;;5050691;28;20289;-71
2022/09/27 08:03:05;;;;;;;1.33;1.20;;;12.90;99.90;;;;;;5050706;28;20626;-71
2022/09/27 08:05:33;;;;;;;1.30;1.30;;;12.90;99.90;;;;;;5050594;28;20200;-71
2022/09/27 08:08:01;;;;;;;1.43;1.33;;;12.90;99.90;;;;;;5050626;28;20655;-71
2022/09/27 08:10:30;;;;;;;1.20;1.20;;;12.90;99.90;;;;;;5050480;28;20219;-71
2022/09/27 08:12:57;;;;;;;1.20;1.20;;;13.00;99.90;;;;;;5050555;28;20580;-71
2022/09/27 08:15:24;;;;;;;1.10;1.10;;;12.90;99.90;;;;;;5050471;28;20211;-71
2022/09/27 08:17:50;;;;;;;1.17;1.10;;;12.90;99.90;;;;;;5050728;28;20218;-71
2022/09/27 08:20:17;;;;;;;1.50;1.23;;;12.90;99.90;;;;;;5050299;28;20243;-71
2022/09/27 08:22:44;;;;;;;1.37;1.30;;;13.00;99.90;;;;;;5050114;28;20681;-71
2022/09/27 08:25:12;;;;;;;1.27;1.23;;;13.00;99.90;;;;;;5050149;28;20331;-71
2022/09/27 08:27:41;;;;;;;1.33;1.33;;;13.00;99.90;;;;;;5050014;28;20238;-71
2022/09/27 08:30:08;;;;;;;1.60;1.27;;;12.90;99.90;;;;;;5050153;28;20222;-71
2022/09/27 08:32:36;;;;;;;1.00;1.00;;;12.90;99.90;;;;;;5050311;28;20291;-71
2022/09/27 08:35:06;;;;;;;2.40;1.40;;;13.00;99.90;;;;;;5050422;28;20224;-71
2022/09/27 08:37:33;;;;;;;1.10;1.10;;;12.90;99.90;;;;;;5050334;28;20212;-71
2022/09/27 08:40:00;;;;;;;1.30;1.30;;;13.00;99.90;;;;;;5050082;28;20320;-71
2022/09/27 08:42:38;;;;;;;1.10;1.10;;;13.00;99.90;;;;;;5049510;28;20670;-71
2022/09/27 08:45:16;;;;;;;1.20;1.10;;;13.00;99.90;;;;;;5050216;28;20195;-71
2022/09/27 08:47:46;;;;;;;2.40;1.17;;;13.00;99.90;;;;;;5050065;28;20317;-71
2022/09/27 08:50:23;;;;;;;1.20;1.20;;;13.00;99.90;;;;;;5031797;28;20204;-71
2022/09/27 08:52:55;;;;;;;1.10;1.10;;;13.10;99.90;;;;;;5038386;28;20289;-71
2022/09/27 08:55:28;;;;;;;1.03;1.00;;;13.10;99.90;;;;;;5049145;28;20200;-71
2022/09/27 08:57:57;;;;;;;1.47;1.33;;;13.10;99.90;;;;;;5049374;28;20212;-71
2022/09/27 09:00:27;;;;;;;1.60;1.17;;;13.10;99.90;;;;;;5049441;28;20252;-71
2022/09/27 09:02:55;;;;;;;1.37;1.20;;;13.10;99.90;;;;;;5049592;28;20283;-71
2022/09/27 09:05:28;;;;;;;1.30;1.30;;;13.10;99.90;;;;;;5049389;28;20228;-71
2022/09/27 09:08:08;;;;;;;1.70;1.60;;;13.10;99.90;;;;;;5049345;28;20617;-71
2022/09/27 09:13:47;;;;;;;4.50;1.43;;;13.10;99.90;;;;;;5048636;28;20289;-71
2022/09/27 09:16:27;;;;;;;1.37;1.30;;;13.20;99.90;;;;;;5049011;28;20522;-70
2022/09/27 09:19:09;;;;;;;1.30;1.20;;;13.20;99.90;;;;;;5047591;28;20196;-71
2022/09/27 09:21:47;;;;;;;1.17;1.17;;;13.20;99.90;;;;;;5029313;28;20227;-71
2022/09/27 09:24:33;;;;;;;1.90;1.30;;;13.20;99.90;;;;;;5036755;28;20253;-70
2022/09/27 09:27:06;;;;;;;1.83;1.40;;;13.30;99.90;;;;;;5068858;28;20215;-71
2022/09/27 09:29:51;;;;;;;1.40;1.30;;;13.30;99.90;;;;;;5069123;28;20198;-71
2022/09/27 09:32:28;;;;;;;1.20;1.20;;;13.40;99.90;;;;;;5069091;28;21093;-71
2022/09/27 09:35:00;;;;;;;1.50;1.40;;;13.40;99.90;;;;;;5068952;28;20199;-71
2022/09/27 09:37:36;;;;;;;1.60;1.40;;;13.40;99.90;;;;;;5068525;28;20238;-71
2022/09/27 09:40:07;;;;;;;2.13;1.53;;;13.50;99.90;;;;;;5068935;28;20219;-71
2022/09/27 09:42:38;;;;;;;1.40;1.30;;;13.50;99.90;;;;;;5067439;28;20207;-71
2022/09/27 09:45:15;;;;;;;1.60;1.50;;;13.50;99.90;;;;;;5068799;28;20202;-71
2022/09/27 09:47:46;;;;;;;1.20;1.20;;;13.50;99.90;;;;;;5068554;28;20245;-71
2022/09/27 09:50:17;;;;;;;1.70;1.60;;;13.50;99.90;;;;;;5051608;28;20216;-70
2022/09/27 09:52:48;;;;;;;1.23;1.10;;;13.50;99.90;;;;;;5048272;28;20204;-71
2022/09/27 09:55:19;;;;;;;1.30;1.30;;;13.60;99.90;;;;;;5060714;28;20306;-70
2022/09/27 09:57:56;;;;;;;1.50;1.40;;;13.60;99.90;;;;;;5067852;28;20677;-70
2022/09/27 10:00:23;;;;;;;1.57;1.43;;;13.60;99.90;;;;;;5061400;28;20223;-70
2022/09/27 10:02:53;;;;;;;1.50;1.40;;;13.60;99.90;;;;;;5048137;28;20203;-70
2022/09/27 10:05:24;;;;;;;1.13;1.13;;;13.60;99.90;;;;;;5048461;28;20189;-70
2022/09/27 10:07:53;;;;;;;1.50;1.40;;;13.70;99.90;;;;;;5047894;28;20750;-71
2022/09/27 10:10:23;;;;;;;1.07;1.07;;;13.70;99.90;;;;;;5047814;28;20212;-71
2022/09/27 10:12:51;;;;;;;1.30;1.20;;;13.70;99.90;;;;;;5047622;28;20211;-71
2022/09/27 10:15:20;;;;;;;1.50;1.40;;;13.80;99.90;;;;;;5048446;28;20204;-71
2022/09/27 10:17:50;;;;;;;1.23;1.20;;;13.90;99.90;;;;;;5048101;28;20295;-71
2022/09/27 10:20:32;;;;;;;3.17;1.43;;;14.00;99.90;;;;;;5048182;28;20216;-71
2022/09/27 10:23:05;;;;;;;1.47;1.20;;;14.00;99.90;;;;;;5048087;28;20299;-71
2022/09/27 10:25:49;;;;;;;1.60;1.50;;;14.10;99.90;;;;;;5062611;28;20211;-71
2022/09/27 10:28:32;;;;;;;1.60;1.50;;;14.00;99.90;;;;;;5066244;28;20242;-71
2022/09/27 10:31:02;;;;;;;1.57;1.47;;;14.00;99.90;;;;;;5068049;28;20196;-71
2022/09/27 10:33:31;;;;;;;1.73;1.63;;;14.00;99.90;;;;;;5068147;28;20191;-71
2022/09/27 10:36:00;;;;;;;2.07;1.80;;;14.00;99.90;;;;;;5068140;28;20199;-70
2022/09/27 10:38:30;;;;;;;1.70;1.60;;;14.00;99.90;;;;;;5068091;28;20203;-71
2022/09/27 10:40:59;;;;;;;1.83;1.73;;;14.00;99.90;;;;;;5067418;28;20237;-71
2022/09/27 10:43:31;;;;;;;2.17;1.73;;;14.10;99.90;;;;;;5067684;28;20213;-71
2022/09/27 10:46:06;;;;;;;1.70;1.60;;;14.00;99.90;;;;;;5055672;28;20220;-71
2022/09/27 10:48:33;;;;;;;1.50;1.40;;;14.00;99.90;;;;;;5043455;28;20195;-71
2022/09/27 10:51:04;;;;;;;2.43;1.57;;;14.00;99.90;;;;;;5027891;28;20609;-71
2022/09/27 10:53:33;;;;;;;1.90;1.50;;;14.00;99.90;;;;;;5027738;28;20654;-71
2022/09/27 10:56:01;;;;;;;1.57;1.47;;;14.10;99.90;;;;;;5029004;28;20221;-71
2022/09/27 10:58:31;;;;;;;1.50;1.50;;;14.10;99.90;;;;;;5047546;28;20709;-71
2022/09/27 11:01:02;;;;;;;1.37;1.37;;;14.20;99.90;;;;;;5046998;28;20324;-71
2022/09/27 11:03:29;;;;;;;1.87;1.50;;;14.30;99.90;;;;;;5046949;28;20719;-71
2022/09/27 11:05:58;;;;;;;1.70;1.60;;;14.40;99.90;;;;;;5046555;28;20211;-71
2022/09/27 11:08:30;;;;;;;1.60;1.50;;;14.40;99.90;;;;;;5047174;28;20232;-71
2022/09/27 11:11:18;;;;;;;5.67;1.37;;;14.50;99.90;;;;;;5046920;28;20663;-71
2022/09/27 11:13:59;;;;;;;1.40;1.30;;;14.50;99.90;;;;;;5047415;28;20280;-71
2022/09/27 11:16:41;;;;;;;2.00;1.90;;;14.60;99.90;;;;;;5047271;28;20239;-71
2022/09/27 11:19:21;;;;;;;1.80;1.70;;;14.60;99.90;;;;;;5043469;28;20201;-71
2022/09/27 11:21:54;;;;;;;1.70;1.60;;;14.60;99.90;;;;;;5027114;28;20232;-71
2022/09/27 11:24:50;;;;;;;1.23;1.23;;;14.50;99.90;;;;;;5036531;28;20603;-71
2022/09/27 11:27:28;;;;;;;1.07;0.43;;;14.50;99.90;;;;;;5067042;28;20188;-70
2022/09/27 11:30:08;;;;;;;0.43;0.23;;;14.00;99.90;;;;;;5067012;28;20264;-71
2022/09/27 11:32:57;;;;;;;0.40;0.40;;;13.30;99.90;;;;;;5067060;28;20195;-70
2022/09/27 11:35:40;;;;;;;0.40;0.40;;;12.80;99.90;;;;;;5064282;28;20215;-71
2022/09/27 11:38:17;;;;;;;0.70;0.50;;;12.60;99.90;;;;;;5066808;28;20195;-71
2022/09/27 11:41:11;;;;;;;0.67;0.63;;;12.20;99.90;;;;;;5066714;28;20256;-70
2022/09/27 11:43:50;;;;;;;0.80;0.80;;;12.00;99.90;;;;;;5026629;28;20644;-70
2022/09/27 11:46:27;;;;;;;0.80;0.80;;;12.00;99.90;;;;;;5026820;28;20202;-71
2022/09/27 11:49:20;;;;;;;0.93;0.93;;;12.00;99.90;;;;;;5033714;28;20192;-70
2022/09/27 11:52:03;;;;;;;0.63;0.63;;;12.20;99.90;;;;;;5046961;28;20204;-71
2022/09/27 11:54:53;;;;;;;1.00;0.80;;;12.10;99.90;;;;;;5039300;28;20207;-70
2022/09/27 11:57:25;;;;;;;0.87;0.87;;;12.20;99.90;;;;;;5066486;28;20227;-71
2022/09/27 12:00:15;;;;;;;1.27;1.13;;;12.30;99.90;;;;;;5066880;28;20188;-71
2022/09/27 12:03:06;;;;;;;1.10;0.97;;;12.40;99.90;;;;;;5026770;28;20220;-70
2022/09/27 12:05:41;;;;;;;1.63;1.20;;;12.40;99.90;;;;;;5047240;28;20581;-71
2022/09/27 12:08:28;;;;;;;1.30;1.20;;;12.50;99.90;;;;;;5050403;28;20756;-71
2022/09/27 12:11:03;;;;;;;1.77;1.60;;;12.60;99.90;;;;;;5050477;28;20318;-70
2022/09/27 12:13:35;;;;;;;2.70;1.90;;;12.60;99.90;;;;;;5050970;28;20192;-71
2022/09/27 12:16:03;;;;;;;5.67;2.53;;;12.60;99.90;;;;;;5050662;28;20188;-71
2022/09/27 12:18:33;;;;;;;3.33;2.27;;;12.50;99.90;;;;;;5050676;28;20226;-70
2022/09/27 12:21:02;;;;;;;1.40;1.30;;;12.60;99.90;;;;;;5050126;28;20243;-71
2022/09/27 12:23:37;;;;;;;2.00;1.10;;;12.60;99.90;;;;;;5050298;28;20309;-71
2022/09/27 12:26:08;;;;;;;2.60;1.13;;;12.60;99.90;;;;;;5068802;28;20214;-70
2022/09/27 12:28:43;;;;;;;2.20;1.23;;;12.80;99.90;;;;;;5070175;28;20203;-71
2022/09/27 12:31:17;;;;;;;2.23;1.80;;;12.80;99.90;;;;;;5070007;28;20195;-71
2022/09/27 12:33:49;;;;;;;1.40;1.30;;;12.80;99.90;;;;;;5070203;28;20732;-71
2022/09/27 12:36:20;;;;;;;1.60;1.50;;;12.80;99.90;;;;;;5070097;28;20567;-71
2022/09/27 12:38:55;;;;;;;1.57;1.30;;;12.90;99.90;;;;;;5056082;28;20216;-71
2022/09/27 12:41:24;;;;;;;1.70;1.60;;;12.80;99.90;;;;;;5050105;28;20212;-70
2022/09/27 12:43:52;;;;;;;1.53;1.40;;;12.80;99.90;;;;;;5049989;28;20231;-71
2022/09/27 12:46:29;;;;;;;1.20;1.20;;;12.90;99.90;;;;;;5050196;28;20215;-70
2022/09/27 12:49:04;;;;;;;1.70;1.60;;;13.10;99.90;;;;;;5049835;28;20199;-70
2022/09/27 12:51:36;;;;;;;1.40;1.30;;;13.40;99.90;;;;;;5050040;28;20235;-71
2022/09/27 12:54:24;;;;;;;1.47;1.37;;;13.50;99.90;;;;;;5051922;28;20223;-71
2022/09/27 12:57:01;;;;;;;1.20;1.20;;;13.50;99.90;;;;;;5065062;28;20200;-71
2022/09/27 12:59:46;;;;;;;1.20;1.20;;;13.40;99.90;;;;;;5049768;28;20659;-71
2022/09/27 13:02:28;;;;;;;1.23;1.23;;;13.30;99.90;;;;;;5029822;28;20659;-70
2022/09/27 13:05:22;;;;;;;0.80;0.80;;;13.40;99.90;;;;;;5029779;28;20189;-70
2022/09/27 13:07:58;;;;;;;2.83;1.10;;;13.40;99.90;;;;;;5029505;28;20602;-71
2022/09/27 13:10:44;;;;;;;1.30;1.30;;;13.30;99.90;;;;;;5029804;28;20204;-71
2022/09/27 13:13:12;;;;;;;1.73;1.30;;;13.30;99.90;;;;;;5029602;28;20663;-71
2022/09/27 13:15:44;;;;;;;1.60;1.07;;;13.30;99.90;;;;;;5029319;28;20211;-71
2022/09/27 13:18:31;;;;;;;1.63;1.30;;;13.10;99.90;;;;;;5028907;28;20224;-70